sensor_id;sensor_type;location;lat;lon;timestamp;P1;durP1;ratioP1;P2;durP2;ratioP2
30185;SDS011;31152;49.190;8.122;2023-04-24T00:01:44;4.88;;;1.50;;
30185;SDS011;31152;49.190;8.122;2023-04-24T00:04:10;2.78;;;1.60;;
30185;SDS011;31152;49.190;8.122;2023-04-24T00:06:40;3.78;;;1.33;;
30185;SDS011;31152;49.190;8.122;2023-04-24T00:09:09;7.65;;;1.70;;
30185;SDS011;31152;49.190;8.122;2023-04-24T00:11:36;2.97;;;1.20;;
30185;SDS011;31152;49.190;8.122;2023-04-24T00:14:05;5.88;;;1.30;;
30185;SDS011;31152;49.190;8.122;2023-04-24T00:16:31;2.00;;;1.15;;
30185;SDS011;31152;49.190;8.122;2023-04-24T00:18:58;3.25;;;1.30;;
30185;SDS011;31152;49.190;8.122;2023-04-24T00:21:27;3.88;;;1.20;;
30185;SDS011;31152;49.190;8.122;2023-04-24T00:23:53;4.18;;;1.38;;
30185;SDS011;31152;49.190;8.122;2023-04-24T00:26:20;5.15;;;1.30;;
30185;SDS011;31152;49.190;8.122;2023-04-24T00:28:49;5.25;;;1.48;;
30185;SDS011;31152;49.190;8.122;2023-04-24T00:31:16;3.83;;;1.67;;
30185;SDS011;31152;49.190;8.122;2023-04-24T00:33:43;7.63;;;2.30;;
30185;SDS011;31152;49.190;8.122;2023-04-24T00:36:09;5.47;;;1.50;;
30185;SDS011;31152;49.190;8.122;2023-04-24T00:38:36;7.03;;;1.30;;
30185;SDS011;31152;49.190;8.122;2023-04-24T00:41:03;3.78;;;1.30;;
30185;SDS011;31152;49.190;8.122;2023-04-24T00:43:29;4.32;;;1.65;;
30185;SDS011;31152;49.190;8.122;2023-04-24T00:45:56;4.07;;;1.63;;
30185;SDS011;31152;49.190;8.122;2023-04-24T00:48:27;4.05;;;1.42;;
30185;SDS011;31152;49.190;8.122;2023-04-24T00:50:54;2.72;;;1.38;;
30185;SDS011;31152;49.190;8.122;2023-04-24T00:53:21;4.55;;;1.30;;
30185;SDS011;31152;49.190;8.122;2023-04-24T00:55:50;5.80;;;1.52;;
30185;SDS011;31152;49.190;8.122;2023-04-24T00:58:20;4.97;;;2.08;;
30185;SDS011;31152;49.190;8.122;2023-04-24T01:00:47;6.18;;;1.73;;
30185;SDS011;31152;49.190;8.122;2023-04-24T01:03:16;4.53;;;1.90;;
30185;SDS011;31152;49.190;8.122;2023-04-24T01:05:47;5.05;;;1.80;;
30185;SDS011;31152;49.190;8.122;2023-04-24T01:08:15;3.35;;;1.63;;
30185;SDS011;31152;49.190;8.122;2023-04-24T01:10:42;5.05;;;1.55;;
30185;SDS011;31152;49.190;8.122;2023-04-24T01:13:11;4.60;;;2.55;;
30185;SDS011;31152;49.190;8.122;2023-04-24T01:15:38;4.18;;;1.80;;
30185;SDS011;31152;49.190;8.122;2023-04-24T01:18:07;3.15;;;1.90;;
30185;SDS011;31152;49.190;8.122;2023-04-24T01:20:36;8.25;;;1.90;;
30185;SDS011;31152;49.190;8.122;2023-04-24T01:23:06;6.57;;;2.15;;
30185;SDS011;31152;49.190;8.122;2023-04-24T01:25:36;3.55;;;1.80;;
30185;SDS011;31152;49.190;8.122;2023-04-24T01:28:03;6.00;;;2.33;;
30185;SDS011;31152;49.190;8.122;2023-04-24T01:30:30;6.72;;;1.90;;
30185;SDS011;31152;49.190;8.122;2023-04-24T01:32:57;3.33;;;1.92;;
30185;SDS011;31152;49.190;8.122;2023-04-24T01:35:25;4.28;;;2.20;;
30185;SDS011;31152;49.190;8.122;2023-04-24T01:37:52;5.70;;;2.10;;
30185;SDS011;31152;49.190;8.122;2023-04-24T01:40:19;5.20;;;1.88;;
30185;SDS011;31152;49.190;8.122;2023-04-24T01:42:46;3.03;;;2.05;;
30185;SDS011;31152;49.190;8.122;2023-04-24T01:45:16;5.18;;;2.10;;
30185;SDS011;31152;49.190;8.122;2023-04-24T01:47:42;4.45;;;2.13;;
30185;SDS011;31152;49.190;8.122;2023-04-24T01:50:10;3.75;;;1.77;;
30185;SDS011;31152;49.190;8.122;2023-04-24T01:52:39;9.13;;;2.38;;
30185;SDS011;31152;49.190;8.122;2023-04-24T01:55:09;6.35;;;1.90;;
30185;SDS011;31152;49.190;8.122;2023-04-24T01:57:36;5.32;;;2.15;;
30185;SDS011;31152;49.190;8.122;2023-04-24T02:00:03;3.55;;;1.80;;
30185;SDS011;31152;49.190;8.122;2023-04-24T02:02:31;8.27;;;1.75;;
30185;SDS011;31152;49.190;8.122;2023-04-24T02:04:59;5.22;;;1.77;;
30185;SDS011;31152;49.190;8.122;2023-04-24T02:07:26;3.67;;;1.63;;
30185;SDS011;31152;49.190;8.122;2023-04-24T02:09:52;5.90;;;1.60;;
30185;SDS011;31152;49.190;8.122;2023-04-24T02:12:19;3.15;;;2.13;;
30185;SDS011;31152;49.190;8.122;2023-04-24T02:14:46;7.60;;;2.08;;
30185;SDS011;31152;49.190;8.122;2023-04-24T02:17:13;6.65;;;2.15;;
30185;SDS011;31152;49.190;8.122;2023-04-24T02:19:41;7.13;;;1.60;;
30185;SDS011;31152;49.190;8.122;2023-04-24T02:22:09;4.00;;;2.00;;
30185;SDS011;31152;49.190;8.122;2023-04-24T02:24:40;5.75;;;1.75;;
30185;SDS011;31152;49.190;8.122;2023-04-24T02:27:07;5.43;;;1.73;;
30185;SDS011;31152;49.190;8.122;2023-04-24T02:29:33;6.32;;;1.80;;
30185;SDS011;31152;49.190;8.122;2023-04-24T02:32:00;3.85;;;1.63;;
30185;SDS011;31152;49.190;8.122;2023-04-24T02:34:27;14.98;;;2.03;;
30185;SDS011;31152;49.190;8.122;2023-04-24T02:36:54;5.43;;;1.65;;
30185;SDS011;31152;49.190;8.122;2023-04-24T02:39:25;3.22;;;1.30;;
30185;SDS011;31152;49.190;8.122;2023-04-24T02:41:52;7.18;;;1.23;;
30185;SDS011;31152;49.190;8.122;2023-04-24T02:44:21;4.15;;;1.20;;
30185;SDS011;31152;49.190;8.122;2023-04-24T02:46:50;4.50;;;1.40;;
30185;SDS011;31152;49.190;8.122;2023-04-24T02:49:17;2.53;;;1.52;;
30185;SDS011;31152;49.190;8.122;2023-04-24T02:51:46;1.30;;;1.20;;
30185;SDS011;31152;49.190;8.122;2023-04-24T02:54:13;2.88;;;1.38;;
30185;SDS011;31152;49.190;8.122;2023-04-24T02:56:39;5.30;;;1.55;;
30185;SDS011;31152;49.190;8.122;2023-04-24T02:59:06;4.80;;;1.42;;
30185;SDS011;31152;49.190;8.122;2023-04-24T03:01:33;3.13;;;1.35;;
30185;SDS011;31152;49.190;8.122;2023-04-24T03:04:00;3.03;;;1.85;;
30185;SDS011;31152;49.190;8.122;2023-04-24T03:06:28;1.85;;;1.20;;
30185;SDS011;31152;49.190;8.122;2023-04-24T03:08:57;3.20;;;1.77;;
30185;SDS011;31152;49.190;8.122;2023-04-24T03:11:24;2.65;;;1.60;;
30185;SDS011;31152;49.190;8.122;2023-04-24T03:13:51;3.13;;;1.60;;
30185;SDS011;31152;49.190;8.122;2023-04-24T03:16:18;2.35;;;1.40;;
30185;SDS011;31152;49.190;8.122;2023-04-24T03:18:45;3.67;;;1.27;;
30185;SDS011;31152;49.190;8.122;2023-04-24T03:21:11;2.67;;;1.20;;
30185;SDS011;31152;49.190;8.122;2023-04-24T03:23:40;2.47;;;1.20;;
30185;SDS011;31152;49.190;8.122;2023-04-24T03:26:07;4.40;;;1.30;;
30185;SDS011;31152;49.190;8.122;2023-04-24T03:28:34;5.35;;;1.17;;
30185;SDS011;31152;49.190;8.122;2023-04-24T03:31:00;1.58;;;1.10;;
30185;SDS011;31152;49.190;8.122;2023-04-24T03:33:28;5.75;;;1.42;;
30185;SDS011;31152;49.190;8.122;2023-04-24T03:35:56;5.32;;;1.30;;
30185;SDS011;31152;49.190;8.122;2023-04-24T03:38:22;3.75;;;1.30;;
30185;SDS011;31152;49.190;8.122;2023-04-24T03:40:51;3.70;;;1.25;;
30185;SDS011;31152;49.190;8.122;2023-04-24T03:43:18;4.80;;;1.40;;
30185;SDS011;31152;49.190;8.122;2023-04-24T03:45:45;3.08;;;1.60;;
30185;SDS011;31152;49.190;8.122;2023-04-24T03:48:12;2.90;;;1.50;;
30185;SDS011;31152;49.190;8.122;2023-04-24T03:50:38;3.80;;;1.60;;
30185;SDS011;31152;49.190;8.122;2023-04-24T03:53:05;4.80;;;1.45;;
30185;SDS011;31152;49.190;8.122;2023-04-24T03:55:32;3.45;;;1.77;;
30185;SDS011;31152;49.190;8.122;2023-04-24T03:57:59;5.13;;;1.60;;
30185;SDS011;31152;49.190;8.122;2023-04-24T04:00:25;6.28;;;1.90;;
30185;SDS011;31152;49.190;8.122;2023-04-24T04:02:52;4.68;;;2.20;;
30185;SDS011;31152;49.190;8.122;2023-04-24T04:05:22;2.60;;;2.08;;
30185;SDS011;31152;49.190;8.122;2023-04-24T04:07:48;5.10;;;2.50;;
30185;SDS011;31152;49.190;8.122;2023-04-24T04:10:15;3.72;;;2.60;;
30185;SDS011;31152;49.190;8.122;2023-04-24T04:12:44;8.50;;;3.33;;
30185;SDS011;31152;49.190;8.122;2023-04-24T04:15:11;5.30;;;2.83;;
30185;SDS011;31152;49.190;8.122;2023-04-24T04:17:38;4.10;;;2.65;;
30185;SDS011;31152;49.190;8.122;2023-04-24T04:20:08;5.68;;;2.95;;
30185;SDS011;31152;49.190;8.122;2023-04-24T04:22:36;3.00;;;2.70;;
30185;SDS011;31152;49.190;8.122;2023-04-24T04:25:04;5.18;;;3.00;;
30185;SDS011;31152;49.190;8.122;2023-04-24T04:27:31;6.60;;;2.80;;
30185;SDS011;31152;49.190;8.122;2023-04-24T04:29:58;4.80;;;2.95;;
30185;SDS011;31152;49.190;8.122;2023-04-24T04:32:29;4.22;;;2.60;;
30185;SDS011;31152;49.190;8.122;2023-04-24T04:34:56;4.90;;;2.90;;
30185;SDS011;31152;49.190;8.122;2023-04-24T04:37:23;5.25;;;2.78;;
30185;SDS011;31152;49.190;8.122;2023-04-24T04:39:51;4.43;;;2.70;;
30185;SDS011;31152;49.190;8.122;2023-04-24T04:42:19;5.45;;;2.72;;
30185;SDS011;31152;49.190;8.122;2023-04-24T04:44:46;5.75;;;3.38;;
30185;SDS011;31152;49.190;8.122;2023-04-24T04:47:12;6.95;;;3.20;;
30185;SDS011;31152;49.190;8.122;2023-04-24T04:49:39;6.00;;;3.65;;
30185;SDS011;31152;49.190;8.122;2023-04-24T04:52:09;5.78;;;3.17;;
30185;SDS011;31152;49.190;8.122;2023-04-24T04:54:36;5.28;;;3.40;;
30185;SDS011;31152;49.190;8.122;2023-04-24T04:57:02;6.32;;;3.03;;
30185;SDS011;31152;49.190;8.122;2023-04-24T04:59:31;8.30;;;3.22;;
30185;SDS011;31152;49.190;8.122;2023-04-24T05:01:58;9.07;;;3.17;;
30185;SDS011;31152;49.190;8.122;2023-04-24T05:04:26;6.97;;;3.50;;
30185;SDS011;31152;49.190;8.122;2023-04-24T05:06:55;5.63;;;2.83;;
30185;SDS011;31152;49.190;8.122;2023-04-24T05:09:24;5.55;;;2.90;;
30185;SDS011;31152;49.190;8.122;2023-04-24T05:11:53;4.97;;;2.45;;
30185;SDS011;31152;49.190;8.122;2023-04-24T05:14:22;4.15;;;2.78;;
30185;SDS011;31152;49.190;8.122;2023-04-24T05:16:51;6.95;;;2.85;;
30185;SDS011;31152;49.190;8.122;2023-04-24T05:19:18;4.47;;;2.80;;
30185;SDS011;31152;49.190;8.122;2023-04-24T05:21:44;4.18;;;2.60;;
30185;SDS011;31152;49.190;8.122;2023-04-24T05:24:11;4.95;;;2.50;;
30185;SDS011;31152;49.190;8.122;2023-04-24T05:26:41;5.15;;;2.95;;
30185;SDS011;31152;49.190;8.122;2023-04-24T05:29:10;4.57;;;3.20;;
30185;SDS011;31152;49.190;8.122;2023-04-24T05:31:36;4.13;;;2.70;;
30185;SDS011;31152;49.190;8.122;2023-04-24T05:34:03;3.83;;;2.55;;
30185;SDS011;31152;49.190;8.122;2023-04-24T05:36:31;6.38;;;3.08;;
30185;SDS011;31152;49.190;8.122;2023-04-24T05:38:58;5.63;;;3.25;;
30185;SDS011;31152;49.190;8.122;2023-04-24T05:41:27;3.50;;;3.03;;
30185;SDS011;31152;49.190;8.122;2023-04-24T05:43:53;4.75;;;3.58;;
30185;SDS011;31152;49.190;8.122;2023-04-24T05:46:22;8.82;;;3.47;;
30185;SDS011;31152;49.190;8.122;2023-04-24T05:48:49;6.32;;;3.70;;
30185;SDS011;31152;49.190;8.122;2023-04-24T05:51:16;5.85;;;4.40;;
30185;SDS011;31152;49.190;8.122;2023-04-24T05:53:43;7.93;;;3.72;;
30185;SDS011;31152;49.190;8.122;2023-04-24T05:56:12;7.45;;;4.10;;
30185;SDS011;31152;49.190;8.122;2023-04-24T05:58:41;9.77;;;3.95;;
30185;SDS011;31152;49.190;8.122;2023-04-24T06:01:10;7.20;;;4.03;;
30185;SDS011;31152;49.190;8.122;2023-04-24T06:03:37;5.60;;;4.20;;
30185;SDS011;31152;49.190;8.122;2023-04-24T06:06:08;4.70;;;3.63;;
30185;SDS011;31152;49.190;8.122;2023-04-24T06:08:34;4.70;;;3.63;;
30185;SDS011;31152;49.190;8.122;2023-04-24T06:11:01;5.10;;;3.35;;
30185;SDS011;31152;49.190;8.122;2023-04-24T06:13:30;7.30;;;3.08;;
30185;SDS011;31152;49.190;8.122;2023-04-24T06:15:59;6.30;;;3.22;;
30185;SDS011;31152;49.190;8.122;2023-04-24T06:18:26;5.22;;;3.10;;
30185;SDS011;31152;49.190;8.122;2023-04-24T06:20:55;4.32;;;2.78;;
30185;SDS011;31152;49.190;8.122;2023-04-24T06:23:22;6.22;;;2.15;;
30185;SDS011;31152;49.190;8.122;2023-04-24T06:25:48;5.35;;;2.10;;
30185;SDS011;31152;49.190;8.122;2023-04-24T06:28:17;4.18;;;1.65;;
30185;SDS011;31152;49.190;8.122;2023-04-24T06:30:44;3.30;;;1.63;;
30185;SDS011;31152;49.190;8.122;2023-04-24T06:33:11;3.30;;;1.77;;
30185;SDS011;31152;49.190;8.122;2023-04-24T06:35:46;3.58;;;1.58;;
30185;SDS011;31152;49.190;8.122;2023-04-24T06:38:15;2.08;;;1.50;;
30185;SDS011;31152;49.190;8.122;2023-04-24T06:40:42;1.40;;;0.90;;
30185;SDS011;31152;49.190;8.122;2023-04-24T06:43:09;2.63;;;1.00;;
30185;SDS011;31152;49.190;8.122;2023-04-24T06:45:37;2.00;;;1.00;;
30185;SDS011;31152;49.190;8.122;2023-04-24T06:48:06;2.45;;;1.15;;
30185;SDS011;31152;49.190;8.122;2023-04-24T06:50:37;3.72;;;1.30;;
30185;SDS011;31152;49.190;8.122;2023-04-24T06:53:04;2.90;;;1.42;;
30185;SDS011;31152;49.190;8.122;2023-04-24T06:55:30;2.78;;;1.33;;
30185;SDS011;31152;49.190;8.122;2023-04-24T06:57:57;3.03;;;1.48;;
30185;SDS011;31152;49.190;8.122;2023-04-24T07:00:24;2.97;;;1.63;;
30185;SDS011;31152;49.190;8.122;2023-04-24T07:02:53;2.85;;;1.70;;
30185;SDS011;31152;49.190;8.122;2023-04-24T07:05:20;3.22;;;2.10;;
30185;SDS011;31152;49.190;8.122;2023-04-24T07:07:47;4.47;;;1.70;;
30185;SDS011;31152;49.190;8.122;2023-04-24T07:10:17;6.05;;;1.65;;
30185;SDS011;31152;49.190;8.122;2023-04-24T07:12:44;5.32;;;2.10;;
30185;SDS011;31152;49.190;8.122;2023-04-24T07:15:11;2.33;;;1.40;;
30185;SDS011;31152;49.190;8.122;2023-04-24T07:17:38;5.05;;;1.95;;
30185;SDS011;31152;49.190;8.122;2023-04-24T07:20:09;4.75;;;1.60;;
30185;SDS011;31152;49.190;8.122;2023-04-24T07:22:38;3.28;;;1.70;;
30185;SDS011;31152;49.190;8.122;2023-04-24T07:25:05;1.77;;;1.35;;
30185;SDS011;31152;49.190;8.122;2023-04-24T07:27:32;3.03;;;2.00;;
30185;SDS011;31152;49.190;8.122;2023-04-24T07:30:00;3.30;;;1.55;;
30185;SDS011;31152;49.190;8.122;2023-04-24T07:32:30;2.63;;;1.73;;
30185;SDS011;31152;49.190;8.122;2023-04-24T07:34:59;3.05;;;1.63;;
30185;SDS011;31152;49.190;8.122;2023-04-24T07:37:26;4.53;;;1.90;;
30185;SDS011;31152;49.190;8.122;2023-04-24T07:39:54;2.78;;;1.85;;
30185;SDS011;31152;49.190;8.122;2023-04-24T07:42:21;4.32;;;1.80;;
30185;SDS011;31152;49.190;8.122;2023-04-24T07:44:48;4.15;;;1.60;;
30185;SDS011;31152;49.190;8.122;2023-04-24T07:47:17;3.92;;;1.25;;
30185;SDS011;31152;49.190;8.122;2023-04-24T07:49:44;5.10;;;1.40;;
30185;SDS011;31152;49.190;8.122;2023-04-24T07:52:11;2.60;;;1.30;;
30185;SDS011;31152;49.190;8.122;2023-04-24T07:54:37;5.88;;;1.48;;
30185;SDS011;31152;49.190;8.122;2023-04-24T07:57:04;3.05;;;1.65;;
30185;SDS011;31152;49.190;8.122;2023-04-24T07:59:32;1.75;;;1.13;;
30185;SDS011;31152;49.190;8.122;2023-04-24T08:02:01;3.10;;;1.23;;
30185;SDS011;31152;49.190;8.122;2023-04-24T08:04:28;5.90;;;1.42;;
30185;SDS011;31152;49.190;8.122;2023-04-24T08:06:55;1.90;;;1.17;;
30185;SDS011;31152;49.190;8.122;2023-04-24T08:09:22;4.40;;;1.20;;
30185;SDS011;31152;49.190;8.122;2023-04-24T08:11:51;4.03;;;1.77;;
30185;SDS011;31152;49.190;8.122;2023-04-24T08:14:20;2.13;;;1.05;;
30185;SDS011;31152;49.190;8.122;2023-04-24T08:16:47;3.83;;;1.38;;
30185;SDS011;31152;49.190;8.122;2023-04-24T08:19:13;1.80;;;0.90;;
30185;SDS011;31152;49.190;8.122;2023-04-24T08:21:42;3.10;;;0.82;;
30185;SDS011;31152;49.190;8.122;2023-04-24T08:24:11;2.97;;;1.20;;
30185;SDS011;31152;49.190;8.122;2023-04-24T08:26:38;4.25;;;1.23;;
30185;SDS011;31152;49.190;8.122;2023-04-24T08:29:08;2.95;;;1.33;;
30185;SDS011;31152;49.190;8.122;2023-04-24T08:31:35;1.63;;;0.80;;
30185;SDS011;31152;49.190;8.122;2023-04-24T08:34:02;4.00;;;1.20;;
30185;SDS011;31152;49.190;8.122;2023-04-24T08:36:29;2.83;;;1.35;;
30185;SDS011;31152;49.190;8.122;2023-04-24T08:39:08;2.60;;;1.23;;
30185;SDS011;31152;49.190;8.122;2023-04-24T08:41:38;2.88;;;1.10;;
30185;SDS011;31152;49.190;8.122;2023-04-24T08:44:09;1.75;;;0.98;;
30185;SDS011;31152;49.190;8.122;2023-04-24T08:46:36;1.75;;;1.00;;
30185;SDS011;31152;49.190;8.122;2023-04-24T08:49:04;3.25;;;1.30;;
30185;SDS011;31152;49.190;8.122;2023-04-24T08:51:31;5.57;;;1.40;;
30185;SDS011;31152;49.190;8.122;2023-04-24T08:54:02;7.40;;;1.75;;
30185;SDS011;31152;49.190;8.122;2023-04-24T08:56:33;2.72;;;1.40;;
30185;SDS011;31152;49.190;8.122;2023-04-24T08:59:04;8.10;;;1.60;;
30185;SDS011;31152;49.190;8.122;2023-04-24T09:01:32;3.88;;;1.58;;
30185;SDS011;31152;49.190;8.122;2023-04-24T09:04:02;2.80;;;1.35;;
30185;SDS011;31152;49.190;8.122;2023-04-24T09:06:30;3.78;;;1.75;;
30185;SDS011;31152;49.190;8.122;2023-04-24T09:09:01;6.13;;;1.60;;
30185;SDS011;31152;49.190;8.122;2023-04-24T09:11:32;6.32;;;2.40;;
30185;SDS011;31152;49.190;8.122;2023-04-24T09:13:59;4.75;;;2.90;;
30185;SDS011;31152;49.190;8.122;2023-04-24T09:16:29;5.32;;;3.10;;
30185;SDS011;31152;49.190;8.122;2023-04-24T09:19:01;5.32;;;2.70;;
30185;SDS011;31152;49.190;8.122;2023-04-24T09:21:32;4.70;;;2.72;;
30185;SDS011;31152;49.190;8.122;2023-04-24T09:24:00;6.05;;;2.78;;
30185;SDS011;31152;49.190;8.122;2023-04-24T09:26:35;6.53;;;2.90;;
30185;SDS011;31152;49.190;8.122;2023-04-24T09:29:02;7.25;;;2.80;;
30185;SDS011;31152;49.190;8.122;2023-04-24T09:31:31;6.22;;;2.50;;
30185;SDS011;31152;49.190;8.122;2023-04-24T09:39:02;4.07;;;2.40;;
30185;SDS011;31152;49.190;8.122;2023-04-24T09:41:38;5.40;;;2.42;;
30185;SDS011;31152;49.190;8.122;2023-04-24T09:46:41;5.03;;;2.30;;
30185;SDS011;31152;49.190;8.122;2023-04-24T09:49:10;5.72;;;2.35;;
30185;SDS011;31152;49.190;8.122;2023-04-24T09:51:43;5.15;;;2.28;;
30185;SDS011;31152;49.190;8.122;2023-04-24T09:54:14;2.88;;;1.90;;
30185;SDS011;31152;49.190;8.122;2023-04-24T09:56:45;8.13;;;2.25;;
30185;SDS011;31152;49.190;8.122;2023-04-24T10:01:44;3.35;;;2.17;;
30185;SDS011;31152;49.190;8.122;2023-04-24T10:04:15;6.82;;;2.20;;
30185;SDS011;31152;49.190;8.122;2023-04-24T10:06:47;5.18;;;2.60;;
30185;SDS011;31152;49.190;8.122;2023-04-24T10:09:17;3.83;;;2.95;;
30185;SDS011;31152;49.190;8.122;2023-04-24T10:11:47;4.40;;;2.70;;
30185;SDS011;31152;49.190;8.122;2023-04-24T10:14:18;5.80;;;2.83;;
30185;SDS011;31152;49.190;8.122;2023-04-24T10:16:47;6.40;;;3.20;;
30185;SDS011;31152;49.190;8.122;2023-04-24T10:19:18;5.85;;;2.95;;
30185;SDS011;31152;49.190;8.122;2023-04-24T10:21:45;4.35;;;3.10;;
30185;SDS011;31152;49.190;8.122;2023-04-24T10:24:17;5.03;;;2.50;;
30185;SDS011;31152;49.190;8.122;2023-04-24T10:26:49;4.70;;;2.60;;
30185;SDS011;31152;49.190;8.122;2023-04-24T10:29:17;3.75;;;2.58;;
30185;SDS011;31152;49.190;8.122;2023-04-24T10:31:44;6.53;;;2.50;;
30185;SDS011;31152;49.190;8.122;2023-04-24T10:34:14;4.43;;;2.25;;
30185;SDS011;31152;49.190;8.122;2023-04-24T10:36:43;4.47;;;2.45;;
30185;SDS011;31152;49.190;8.122;2023-04-24T10:39:14;5.18;;;2.55;;
30185;SDS011;31152;49.190;8.122;2023-04-24T10:41:52;4.30;;;2.10;;
30185;SDS011;31152;49.190;8.122;2023-04-24T10:44:20;4.28;;;2.20;;
30185;SDS011;31152;49.190;8.122;2023-04-24T10:46:52;5.65;;;2.45;;
30185;SDS011;31152;49.190;8.122;2023-04-24T10:49:29;5.68;;;2.53;;
30185;SDS011;31152;49.190;8.122;2023-04-24T10:52:01;5.28;;;2.30;;
30185;SDS011;31152;49.190;8.122;2023-04-24T10:54:44;4.55;;;2.55;;
30185;SDS011;31152;49.190;8.122;2023-04-24T10:59:48;7.22;;;3.15;;
30185;SDS011;31152;49.190;8.122;2023-04-24T11:02:17;4.45;;;3.08;;
30185;SDS011;31152;49.190;8.122;2023-04-24T11:04:45;7.93;;;3.20;;
30185;SDS011;31152;49.190;8.122;2023-04-24T11:07:14;5.05;;;3.00;;
30185;SDS011;31152;49.190;8.122;2023-04-24T11:09:42;4.95;;;3.05;;
30185;SDS011;31152;49.190;8.122;2023-04-24T11:12:13;6.75;;;3.42;;
30185;SDS011;31152;49.190;8.122;2023-04-24T11:20:00;6.28;;;3.08;;
30185;SDS011;31152;49.190;8.122;2023-04-24T11:22:49;9.75;;;3.67;;
30185;SDS011;31152;49.190;8.122;2023-04-24T11:25:23;5.72;;;3.17;;
30185;SDS011;31152;49.190;8.122;2023-04-24T11:27:51;8.85;;;3.47;;
30185;SDS011;31152;49.190;8.122;2023-04-24T11:30:33;7.25;;;3.53;;
30185;SDS011;31152;49.190;8.122;2023-04-24T11:33:05;7.22;;;3.70;;
30185;SDS011;31152;49.190;8.122;2023-04-24T11:35:36;5.40;;;3.13;;
30185;SDS011;31152;49.190;8.122;2023-04-24T11:38:07;6.53;;;3.03;;
30185;SDS011;31152;49.190;8.122;2023-04-24T11:40:37;5.55;;;2.78;;
30185;SDS011;31152;49.190;8.122;2023-04-24T11:43:05;8.35;;;2.35;;
30185;SDS011;31152;49.190;8.122;2023-04-24T11:45:33;5.82;;;2.90;;
30185;SDS011;31152;49.190;8.122;2023-04-24T11:48:02;5.43;;;2.97;;
30185;SDS011;31152;49.190;8.122;2023-04-24T11:50:30;8.02;;;2.83;;
30185;SDS011;31152;49.190;8.122;2023-04-24T11:52:59;8.15;;;3.80;;
30185;SDS011;31152;49.190;8.122;2023-04-24T11:55:27;5.15;;;2.92;;
30185;SDS011;31152;49.190;8.122;2023-04-24T11:57:56;4.88;;;3.08;;
30185;SDS011;31152;49.190;8.122;2023-04-24T12:00:28;5.53;;;2.75;;
30185;SDS011;31152;49.190;8.122;2023-04-24T12:03:03;3.97;;;2.50;;
30185;SDS011;31152;49.190;8.122;2023-04-24T12:05:38;6.47;;;2.97;;
30185;SDS011;31152;49.190;8.122;2023-04-24T12:08:05;6.60;;;2.60;;
30185;SDS011;31152;49.190;8.122;2023-04-24T12:10:32;5.85;;;2.58;;
30185;SDS011;31152;49.190;8.122;2023-04-24T12:13:03;7.70;;;3.20;;
30185;SDS011;31152;49.190;8.122;2023-04-24T12:15:30;9.02;;;2.92;;
30185;SDS011;31152;49.190;8.122;2023-04-24T12:17:57;6.30;;;2.90;;
30185;SDS011;31152;49.190;8.122;2023-04-24T12:20:27;6.18;;;3.03;;
30185;SDS011;31152;49.190;8.122;2023-04-24T12:22:59;6.00;;;2.78;;
30185;SDS011;31152;49.190;8.122;2023-04-24T12:25:27;5.82;;;2.70;;
30185;SDS011;31152;49.190;8.122;2023-04-24T12:27:57;6.10;;;3.00;;
30185;SDS011;31152;49.190;8.122;2023-04-24T12:30:48;8.40;;;3.10;;
30185;SDS011;31152;49.190;8.122;2023-04-24T12:33:19;9.02;;;2.92;;
30185;SDS011;31152;49.190;8.122;2023-04-24T12:35:47;4.75;;;2.75;;
30185;SDS011;31152;49.190;8.122;2023-04-24T12:38:21;5.68;;;3.00;;
30185;SDS011;31152;49.190;8.122;2023-04-24T12:41:00;5.60;;;3.17;;
30185;SDS011;31152;49.190;8.122;2023-04-24T12:43:28;6.38;;;2.45;;
30185;SDS011;31152;49.190;8.122;2023-04-24T12:45:55;4.57;;;2.60;;
30185;SDS011;31152;49.190;8.122;2023-04-24T12:48:23;6.53;;;2.60;;
30185;SDS011;31152;49.190;8.122;2023-04-24T12:50:49;4.00;;;2.55;;
30185;SDS011;31152;49.190;8.122;2023-04-24T12:53:16;6.40;;;2.80;;
30185;SDS011;31152;49.190;8.122;2023-04-24T12:55:43;4.60;;;2.30;;
30185;SDS011;31152;49.190;8.122;2023-04-24T12:58:11;10.23;;;2.83;;
30185;SDS011;31152;49.190;8.122;2023-04-24T13:00:38;3.58;;;1.98;;
30185;SDS011;31152;49.190;8.122;2023-04-24T13:03:05;8.82;;;2.65;;
30185;SDS011;31152;49.190;8.122;2023-04-24T13:05:32;5.32;;;2.55;;
30185;SDS011;31152;49.190;8.122;2023-04-24T13:07:59;8.40;;;2.60;;
30185;SDS011;31152;49.190;8.122;2023-04-24T13:10:26;6.93;;;2.65;;
30185;SDS011;31152;49.190;8.122;2023-04-24T13:12:52;5.18;;;2.55;;
30185;SDS011;31152;49.190;8.122;2023-04-24T13:15:19;5.45;;;3.15;;
30185;SDS011;31152;49.190;8.122;2023-04-24T13:17:46;5.18;;;3.17;;
30185;SDS011;31152;49.190;8.122;2023-04-24T13:20:13;9.63;;;2.95;;
30185;SDS011;31152;49.190;8.122;2023-04-24T13:22:40;4.97;;;2.42;;
30185;SDS011;31152;49.190;8.122;2023-04-24T13:25:07;4.95;;;2.67;;
30185;SDS011;31152;49.190;8.122;2023-04-24T13:27:35;5.93;;;2.53;;
30185;SDS011;31152;49.190;8.122;2023-04-24T13:30:06;9.95;;;3.05;;
30185;SDS011;31152;49.190;8.122;2023-04-24T13:32:33;5.95;;;2.60;;
30185;SDS011;31152;49.190;8.122;2023-04-24T13:35:01;6.13;;;2.47;;
30185;SDS011;31152;49.190;8.122;2023-04-24T13:37:28;7.00;;;2.42;;
30185;SDS011;31152;49.190;8.122;2023-04-24T13:39:57;7.88;;;2.63;;
30185;SDS011;31152;49.190;8.122;2023-04-24T13:42:24;6.97;;;2.30;;
30185;SDS011;31152;49.190;8.122;2023-04-24T13:44:51;5.40;;;2.55;;
30185;SDS011;31152;49.190;8.122;2023-04-24T13:47:18;6.10;;;3.20;;
30185;SDS011;31152;49.190;8.122;2023-04-24T13:49:45;5.25;;;2.30;;
30185;SDS011;31152;49.190;8.122;2023-04-24T13:52:11;4.07;;;2.35;;
30185;SDS011;31152;49.190;8.122;2023-04-24T13:54:38;3.30;;;2.25;;
30185;SDS011;31152;49.190;8.122;2023-04-24T13:57:07;8.25;;;2.72;;
30185;SDS011;31152;49.190;8.122;2023-04-24T13:59:36;4.10;;;2.05;;
30185;SDS011;31152;49.190;8.122;2023-04-24T14:02:06;5.30;;;2.03;;
30185;SDS011;31152;49.190;8.122;2023-04-24T14:04:33;4.78;;;2.67;;
30185;SDS011;31152;49.190;8.122;2023-04-24T14:07:00;3.70;;;2.25;;
30185;SDS011;31152;49.190;8.122;2023-04-24T14:09:26;6.03;;;2.22;;
30185;SDS011;31152;49.190;8.122;2023-04-24T14:11:53;3.58;;;2.30;;
30185;SDS011;31152;49.190;8.122;2023-04-24T14:14:22;4.85;;;2.22;;
30185;SDS011;31152;49.190;8.122;2023-04-24T14:16:49;3.58;;;2.30;;
30185;SDS011;31152;49.190;8.122;2023-04-24T14:19:18;5.63;;;2.47;;
30185;SDS011;31152;49.190;8.122;2023-04-24T14:21:45;4.25;;;2.17;;
30185;SDS011;31152;49.190;8.122;2023-04-24T14:24:12;4.07;;;2.10;;
30185;SDS011;31152;49.190;8.122;2023-04-24T14:26:38;4.05;;;2.08;;
30185;SDS011;31152;49.190;8.122;2023-04-24T14:29:07;4.68;;;2.15;;
30185;SDS011;31152;49.190;8.122;2023-04-24T14:31:40;4.55;;;2.10;;
30185;SDS011;31152;49.190;8.122;2023-04-24T14:34:10;4.75;;;2.15;;
30185;SDS011;31152;49.190;8.122;2023-04-24T14:36:37;5.05;;;2.40;;
30185;SDS011;31152;49.190;8.122;2023-04-24T14:39:03;5.18;;;2.25;;
30185;SDS011;31152;49.190;8.122;2023-04-24T14:41:33;4.80;;;2.33;;
30185;SDS011;31152;49.190;8.122;2023-04-24T14:44:03;5.03;;;2.58;;
30185;SDS011;31152;49.190;8.122;2023-04-24T14:46:33;4.18;;;2.67;;
30185;SDS011;31152;49.190;8.122;2023-04-24T14:49:00;4.85;;;2.55;;
30185;SDS011;31152;49.190;8.122;2023-04-24T14:51:26;4.95;;;2.58;;
30185;SDS011;31152;49.190;8.122;2023-04-24T14:53:53;5.90;;;2.88;;
30185;SDS011;31152;49.190;8.122;2023-04-24T14:56:20;6.20;;;2.95;;
30185;SDS011;31152;49.190;8.122;2023-04-24T14:58:46;4.47;;;2.50;;
30185;SDS011;31152;49.190;8.122;2023-04-24T15:01:16;5.00;;;2.40;;
30185;SDS011;31152;49.190;8.122;2023-04-24T15:03:45;4.35;;;2.47;;
30185;SDS011;31152;49.190;8.122;2023-04-24T15:06:15;4.43;;;2.60;;
30185;SDS011;31152;49.190;8.122;2023-04-24T15:08:42;6.65;;;3.00;;
30185;SDS011;31152;49.190;8.122;2023-04-24T15:11:09;5.88;;;3.00;;
30185;SDS011;31152;49.190;8.122;2023-04-24T15:13:37;4.25;;;2.80;;